Montgomery, Kentucky
Current Conditions -  °F | °C
As of 12:58 AM on Tuesday 21 Oct 2014 (Local Time) from KHOP Reporting Station
Few Clouds Few Clouds  
Wind Chill: 55°   Ceiling: Unl
Heat Index: 55°   Visibility: 10mi
Dew Point: 55°   Wind: 5mph
Humidity: 98%   Direction: 290°WNW
Pressure: 30.01"   Gusts: NA
Location:  36.8031°N, 87.8159°W
Report Text: KHOP 210558Z AUTO 29004KT 10SM FEW070 13/13 A3001 RMK AO2 SLP162 T01290126 10162 20124 402050080 52002
Loading
Personal Weather Stations






























Interactive Weather Map
Tropical Storm Tracking
New forecast layout! Learn more

10-Day Weather Forecast

Advertisements
Track Severe Weather on mobile